Time;durP1;ratioP1;P1;durP2;ratioP2;P2;SDS_P1;SDS_P2;PMS_P1;PMS_P2;Temp;Humidity;BMP_temperature;BMP_pressure;BME280_temperature;BME280_humidity;BME280_pressure;Samples;Min_cycle;Max_cycle;Signal;HPM_P1;HPM_P2
2022/11/07 00:01:37;;;;;;;9.95;7.20;;;;;;;;;;5057491;28;20435;-81
2022/11/07 00:04:03;;;;;;;9.68;7.10;;;;;;;;;;5058294;28;20920;-81
2022/11/07 00:06:29;;;;;;;9.90;7.37;;;;;;;;;;5056976;28;20862;-81
2022/11/07 00:08:58;;;;;;;11.10;7.82;;;;;;;;;;5060962;28;20447;-81
2022/11/07 00:11:24;;;;;;;9.63;7.10;;;;;;;;;;5061710;28;20422;-81
2022/11/07 00:13:52;;;;;;;9.05;7.03;;;;;;;;;;5064138;28;20419;-81
2022/11/07 00:16:18;;;;;;;8.60;7.05;;;;;;;;;;5060603;28;20424;-81
2022/11/07 00:18:45;;;;;;;8.77;7.32;;;;;;;;;;5059906;28;20413;-81
2022/11/07 00:21:11;;;;;;;10.02;6.80;;;;;;;;;;5058655;28;20423;-81
2022/11/07 00:23:39;;;;;;;9.48;7.18;;;;;;;;;;5063082;28;20421;-81
2022/11/07 00:26:07;;;;;;;7.45;5.95;;;;;;;;;;5061275;28;20769;-81
2022/11/07 00:28:34;;;;;;;11.45;6.80;;;;;;;;;;5066763;28;20418;-81
2022/11/07 00:31:02;;;;;;;11.25;7.22;;;;;;;;;;5064863;28;20434;-81
2022/11/07 00:33:29;;;;;;;7.63;6.75;;;;;;;;;;5064043;28;20415;-81
2022/11/07 00:35:55;;;;;;;7.80;6.20;;;;;;;;;;5064954;28;20433;-81
2022/11/07 00:38:21;;;;;;;9.15;7.28;;;;;;;;;;5059081;28;20504;-81
2022/11/07 00:40:53;;;;;;;10.73;6.65;;;;;;;;;;5067843;28;20907;-81
2022/11/07 00:43:20;;;;;;;7.47;6.03;;;;;;;;;;5065033;28;20420;-81
2022/11/07 00:45:46;;;;;;;8.40;6.57;;;;;;;;;;5059664;28;20431;-81
2022/11/07 00:48:14;;;;;;;9.75;6.03;;;;;;;;;;5067828;28;20411;-81
2022/11/07 00:50:40;;;;;;;8.20;6.22;;;;;;;;;;5064818;28;20433;-81
2022/11/07 00:53:07;;;;;;;10.23;6.72;;;;;;;;;;5067617;28;20415;-81
2022/11/07 00:55:33;;;;;;;10.23;7.25;;;;;;;;;;5065661;28;20405;-81
2022/11/07 00:58:00;;;;;;;9.50;6.22;;;;;;;;;;5063888;28;20417;-81
2022/11/07 01:00:26;;;;;;;9.07;6.05;;;;;;;;;;5064269;28;20931;-81
2022/11/07 01:05:34;;;;;;;9.13;6.10;;;;;;;;;;5062656;28;20431;-81
2022/11/07 01:08:01;;;;;;;10.45;6.35;;;;;;;;;;5058387;28;20946;-81
2022/11/07 01:10:28;;;;;;;6.40;5.50;;;;;;;;;;5060225;28;20429;-81
2022/11/07 01:12:54;;;;;;;5.70;5.10;;;;;;;;;;5060850;28;22807;-81
2022/11/07 01:15:21;;;;;;;10.00;6.20;;;;;;;;;;5062011;28;20427;-81
2022/11/07 01:17:47;;;;;;;8.65;5.60;;;;;;;;;;5063548;28;20423;-81
2022/11/07 01:20:13;;;;;;;7.65;5.30;;;;;;;;;;5063978;28;20421;-81
2022/11/07 01:22:41;;;;;;;7.68;5.55;;;;;;;;;;5061552;28;20425;-81
2022/11/07 01:25:08;;;;;;;10.43;5.65;;;;;;;;;;5062954;28;20435;-81
2022/11/07 01:27:35;;;;;;;10.60;5.70;;;;;;;;;;5061867;28;20491;-81
2022/11/07 01:30:01;;;;;;;7.35;5.32;;;;;;;;;;5066592;28;20431;-79
2022/11/07 01:32:27;;;;;;;9.07;5.28;;;;;;;;;;5059360;28;20417;-79
2022/11/07 01:34:54;;;;;;;9.00;5.18;;;;;;;;;;5064318;28;20413;-79
2022/11/07 01:37:20;;;;;;;7.40;5.10;;;;;;;;;;5061813;28;20500;-79
2022/11/07 01:39:48;;;;;;;8.77;5.75;;;;;;;;;;5064517;28;20442;-79
2022/11/07 01:42:14;;;;;;;10.70;5.00;;;;;;;;;;5061991;28;20416;-79
2022/11/07 01:44:55;;;;;;;5.83;4.67;;;;;;;;;;5064051;28;20411;-79
2022/11/07 01:47:23;;;;;;;8.43;4.95;;;;;;;;;;5058466;28;20425;-79
2022/11/07 01:49:51;;;;;;;8.15;4.80;;;;;;;;;;5064706;28;20420;-81
2022/11/07 01:52:19;;;;;;;6.88;4.57;;;;;;;;;;5063976;28;20415;-79
2022/11/07 01:54:48;;;;;;;7.72;4.70;;;;;;;;;;5059466;28;20433;-79
2022/11/07 01:57:19;;;;;;;5.95;4.07;;;;;;;;;;5064593;28;20418;-79
2022/11/07 01:59:46;;;;;;;8.60;4.32;;;;;;;;;;5061862;28;20433;-80
2022/11/07 02:02:14;;;;;;;7.40;4.35;;;;;;;;;;5065563;28;20411;-79
2022/11/07 02:04:41;;;;;;;7.35;4.22;;;;;;;;;;5061811;28;20416;-80
2022/11/07 02:07:09;;;;;;;9.68;4.20;;;;;;;;;;5064197;28;20419;-81
2022/11/07 02:09:36;;;;;;;7.22;4.40;;;;;;;;;;5065040;28;20410;-81
2022/11/07 02:12:02;;;;;;;6.20;4.20;;;;;;;;;;5061325;28;20415;-81
2022/11/07 02:14:30;;;;;;;7.90;4.60;;;;;;;;;;5063344;28;20432;-81
2022/11/07 02:16:56;;;;;;;11.73;4.55;;;;;;;;;;5062970;28;20432;-79
2022/11/07 02:19:28;;;;;;;12.23;4.57;;;;;;;;;;5059204;28;20452;-79
2022/11/07 02:21:57;;;;;;;7.05;4.32;;;;;;;;;;5063944;28;20429;-79
2022/11/07 02:24:26;;;;;;;5.15;4.00;;;;;;;;;;5058631;28;20429;-79
2022/11/07 02:26:53;;;;;;;8.68;4.20;;;;;;;;;;5060831;28;20413;-80
2022/11/07 02:29:20;;;;;;;6.65;3.65;;;;;;;;;;5060906;28;20423;-79
2022/11/07 02:31:47;;;;;;;9.02;4.15;;;;;;;;;;5063240;28;20431;-80
2022/11/07 02:34:13;;;;;;;7.38;4.32;;;;;;;;;;5063654;28;20793;-79
2022/11/07 02:36:41;;;;;;;7.15;3.88;;;;;;;;;;5059752;28;20795;-79
2022/11/07 02:39:08;;;;;;;6.82;4.03;;;;;;;;;;5059247;28;20450;-79
2022/11/07 02:41:36;;;;;;;6.05;3.72;;;;;;;;;;5061228;28;20437;-79
2022/11/07 02:44:04;;;;;;;11.20;4.57;;;;;;;;;;5055662;28;21130;-81
2022/11/07 02:46:31;;;;;;;9.80;4.30;;;;;;;;;;5061171;28;20432;-80
2022/11/07 02:48:58;;;;;;;8.95;4.20;;;;;;;;;;5059683;28;20427;-79
2022/11/07 02:51:25;;;;;;;4.78;3.42;;;;;;;;;;5061480;28;20423;-79
2022/11/07 02:53:51;;;;;;;8.27;3.80;;;;;;;;;;5064689;28;20449;-79
2022/11/07 02:56:18;;;;;;;7.95;3.60;;;;;;;;;;5061826;28;20440;-81
2022/11/07 02:58:46;;;;;;;7.80;4.10;;;;;;;;;;5059627;28;20913;-81
2022/11/07 03:01:13;;;;;;;8.77;3.87;;;;;;;;;;5064694;28;20470;-80
2022/11/07 03:03:40;;;;;;;6.70;3.83;;;;;;;;;;5057973;28;20425;-81
2022/11/07 03:06:07;;;;;;;10.52;3.60;;;;;;;;;;5063977;28;20893;-82
2022/11/07 03:08:34;;;;;;;7.75;3.70;;;;;;;;;;5060178;28;20423;-81
2022/11/07 03:11:00;;;;;;;9.97;3.43;;;;;;;;;;5064796;28;20429;-80
2022/11/07 03:13:27;;;;;;;4.53;3.20;;;;;;;;;;5058321;28;20510;-79
2022/11/07 03:15:55;;;;;;;7.20;3.50;;;;;;;;;;5059849;28;20436;-80
2022/11/07 03:18:23;;;;;;;6.60;3.60;;;;;;;;;;5062859;28;20419;-81
2022/11/07 03:20:49;;;;;;;8.68;3.97;;;;;;;;;;5061673;28;20430;-81
2022/11/07 03:23:16;;;;;;;7.45;3.40;;;;;;;;;;5061649;28;20419;-81
2022/11/07 03:25:42;;;;;;;7.77;3.53;;;;;;;;;;5061520;28;20416;-81
2022/11/07 03:28:09;;;;;;;8.35;3.53;;;;;;;;;;5061976;28;20921;-81
2022/11/07 03:30:35;;;;;;;7.70;3.53;;;;;;;;;;5058874;28;20433;-81
2022/11/07 03:33:03;;;;;;;7.85;3.60;;;;;;;;;;5061672;28;20417;-81
2022/11/07 03:35:29;;;;;;;5.32;3.10;;;;;;;;;;5065420;28;20429;-81
2022/11/07 03:37:56;;;;;;;9.87;3.53;;;;;;;;;;5065765;28;20416;-81
2022/11/07 03:40:22;;;;;;;7.55;4.10;;;;;;;;;;5059778;28;20427;-80
2022/11/07 03:42:48;;;;;;;11.05;3.70;;;;;;;;;;5064434;28;20790;-79
2022/11/07 03:45:15;;;;;;;9.45;3.40;;;;;;;;;;5059283;28;20949;-79
2022/11/07 03:47:43;;;;;;;9.60;3.33;;;;;;;;;;5063566;28;20413;-81
2022/11/07 03:50:12;;;;;;;9.07;3.53;;;;;;;;;;5063518;28;20424;-81
2022/11/07 03:52:39;;;;;;;8.73;3.80;;;;;;;;;;5061879;28;20421;-81
2022/11/07 03:55:06;;;;;;;7.43;3.10;;;;;;;;;;5062474;28;20412;-79
2022/11/07 03:57:32;;;;;;;5.55;3.70;;;;;;;;;;5061429;28;20421;-80
2022/11/07 03:59:59;;;;;;;6.97;3.53;;;;;;;;;;5063660;28;20521;-81
2022/11/07 04:02:25;;;;;;;4.25;3.20;;;;;;;;;;5063754;28;20455;-81
2022/11/07 04:04:51;;;;;;;8.23;3.60;;;;;;;;;;5069307;28;20514;-79
2022/11/07 04:07:21;;;;;;;7.13;3.05;;;;;;;;;;5069912;28;20415;-80
2022/11/07 04:09:47;;;;;;;5.90;3.10;;;;;;;;;;5063494;28;20492;-79
2022/11/07 04:17:41;;;;;;;7.73;3.80;;;;;;;;;;5062309;28;20905;-79
2022/11/07 04:20:09;;;;;;;6.38;3.40;;;;;;;;;;5063731;28;20812;-80
2022/11/07 04:22:39;;;;;;;7.05;3.70;;;;;;;;;;5063972;28;20442;-79
2022/11/07 04:25:06;;;;;;;6.80;3.30;;;;;;;;;;5066380;28;20411;-80
2022/11/07 04:27:45;;;;;;;12.00;4.10;;;;;;;;;;5063015;28;20423;-79
2022/11/07 04:30:18;;;;;;;11.90;4.00;;;;;;;;;;5063527;28;20424;-79
2022/11/07 04:32:45;;;;;;;6.45;3.55;;;;;;;;;;5065237;28;20554;-81
2022/11/07 04:35:11;;;;;;;10.15;3.60;;;;;;;;;;5072006;28;20478;-81
2022/11/07 04:37:39;;;;;;;9.73;3.67;;;;;;;;;;5062971;28;20424;-81
2022/11/07 04:40:06;;;;;;;10.87;4.13;;;;;;;;;;5064229;28;20419;-81
2022/11/07 04:42:33;;;;;;;7.60;3.60;;;;;;;;;;5062070;28;20433;-79
2022/11/07 04:44:59;;;;;;;7.25;3.40;;;;;;;;;;5061629;28;20411;-81
2022/11/07 04:47:26;;;;;;;8.18;3.70;;;;;;;;;;5062421;28;20424;-79
2022/11/07 04:49:52;;;;;;;8.48;3.40;;;;;;;;;;5063217;28;20437;-79
2022/11/07 04:52:19;;;;;;;13.25;3.85;;;;;;;;;;5063390;28;20434;-80
2022/11/07 04:54:47;;;;;;;9.07;3.53;;;;;;;;;;5068173;28;20924;-81
2022/11/07 04:57:15;;;;;;;9.27;3.40;;;;;;;;;;5063435;28;20420;-81
2022/11/07 04:59:41;;;;;;;8.63;3.85;;;;;;;;;;5065370;28;20486;-79
2022/11/07 05:02:09;;;;;;;5.38;3.30;;;;;;;;;;5064417;28;20483;-79
2022/11/07 05:04:38;;;;;;;9.35;4.10;;;;;;;;;;5065456;28;20409;-81
2022/11/07 05:07:05;;;;;;;7.83;3.60;;;;;;;;;;5058210;28;20409;-80
2022/11/07 05:09:33;;;;;;;10.60;3.80;;;;;;;;;;5065637;28;20412;-81
2022/11/07 05:12:01;;;;;;;9.55;3.30;;;;;;;;;;5063324;28;20907;-81
2022/11/07 05:14:29;;;;;;;7.28;3.40;;;;;;;;;;5062667;28;20452;-79
2022/11/07 05:16:57;;;;;;;7.13;3.40;;;;;;;;;;5062547;28;20411;-79
2022/11/07 05:19:23;;;;;;;7.85;4.10;;;;;;;;;;5062178;28;20945;-80
2022/11/07 05:23:11;;;;;;;10.27;3.40;;;;;;;;;;5066584;28;20418;-79
2022/11/07 05:24:36;;;;;;;8.32;3.50;;;;;;;;;;5062983;28;20442;-81
2022/11/07 05:27:06;;;;;;;12.43;3.83;;;;;;;;;;5059727;28;20428;-79
2022/11/07 05:29:32;;;;;;;12.32;4.32;;;;;;;;;;5061384;28;20423;-81
2022/11/07 05:31:59;;;;;;;11.15;3.60;;;;;;;;;;5059999;28;20435;-81
2022/11/07 05:34:25;;;;;;;10.38;4.30;;;;;;;;;;5061106;28;20417;-81
2022/11/07 05:36:52;;;;;;;8.27;3.45;;;;;;;;;;5059704;28;20429;-81
2022/11/07 05:39:18;;;;;;;14.50;3.80;;;;;;;;;;5062377;28;20953;-81
2022/11/07 05:41:45;;;;;;;9.15;3.70;;;;;;;;;;5062492;28;20438;-82
2022/11/07 05:44:13;;;;;;;11.00;3.22;;;;;;;;;;5064774;28;20430;-80
2022/11/07 05:46:39;;;;;;;12.82;3.70;;;;;;;;;;5062924;28;20424;-82
2022/11/07 05:49:05;;;;;;;8.20;3.45;;;;;;;;;;5061181;28;20454;-81
2022/11/07 05:51:32;;;;;;;8.98;3.13;;;;;;;;;;5062178;28;20429;-81
2022/11/07 05:53:58;;;;;;;9.70;4.07;;;;;;;;;;5064614;28;20936;-81
2022/11/07 05:56:24;;;;;;;10.15;3.38;;;;;;;;;;5062371;28;20490;-82
2022/11/07 05:58:51;;;;;;;8.98;3.75;;;;;;;;;;5059908;28;21537;-81
2022/11/07 06:01:19;;;;;;;8.83;4.10;;;;;;;;;;5060347;28;20434;-81
2022/11/07 06:03:45;;;;;;;10.53;3.80;;;;;;;;;;5059050;28;20464;-79
2022/11/07 06:06:12;;;;;;;8.35;4.10;;;;;;;;;;5068475;28;20433;-79
2022/11/07 06:08:39;;;;;;;9.50;3.40;;;;;;;;;;5064602;28;21223;-79
2022/11/07 06:11:08;;;;;;;11.10;3.85;;;;;;;;;;5062472;28;20433;-80
2022/11/07 06:13:34;;;;;;;11.43;4.00;;;;;;;;;;5062881;28;20494;-82
2022/11/07 06:16:01;;;;;;;11.82;3.55;;;;;;;;;;5064797;28;20431;-79
2022/11/07 06:18:29;;;;;;;14.85;3.90;;;;;;;;;;5067722;28;20442;-81
2022/11/07 06:20:55;;;;;;;7.45;3.60;;;;;;;;;;5062356;28;20435;-82
2022/11/07 06:23:22;;;;;;;8.38;3.88;;;;;;;;;;5060818;28;20426;-79
2022/11/07 06:25:50;;;;;;;14.18;4.70;;;;;;;;;;5062613;28;20439;-80
2022/11/07 06:28:17;;;;;;;8.90;3.50;;;;;;;;;;5057545;28;20425;-80
2022/11/07 06:30:43;;;;;;;7.13;4.33;;;;;;;;;;5065624;28;20459;-80
2022/11/07 06:33:11;;;;;;;10.90;4.55;;;;;;;;;;5064326;28;20426;-80
2022/11/07 06:35:39;;;;;;;11.07;3.90;;;;;;;;;;5064295;28;20435;-80
2022/11/07 06:38:07;;;;;;;11.65;4.13;;;;;;;;;;5060587;28;20423;-80
2022/11/07 06:40:34;;;;;;;12.55;3.95;;;;;;;;;;5062898;28;20425;-81
2022/11/07 06:43:07;;;;;;;8.80;3.65;;;;;;;;;;5062433;28;20425;-80
2022/11/07 06:45:34;;;;;;;7.60;3.85;;;;;;;;;;5060789;28;20436;-80
2022/11/07 06:48:00;;;;;;;10.32;4.70;;;;;;;;;;5061168;28;20419;-82
2022/11/07 06:50:27;;;;;;;9.10;4.10;;;;;;;;;;5064774;28;20841;-82
2022/11/07 06:52:55;;;;;;;10.77;4.20;;;;;;;;;;5064802;28;20425;-80
2022/11/07 06:55:21;;;;;;;11.33;4.80;;;;;;;;;;5063880;28;20420;-81
2022/11/07 06:57:48;;;;;;;14.60;5.00;;;;;;;;;;5064653;28;20779;-81
2022/11/07 07:00:15;;;;;;;11.50;3.92;;;;;;;;;;5064015;28;20425;-80
2022/11/07 07:02:42;;;;;;;9.20;4.47;;;;;;;;;;5061623;28;20410;-82
2022/11/07 07:05:08;;;;;;;8.65;4.10;;;;;;;;;;5059481;28;20832;-81
2022/11/07 07:07:35;;;;;;;9.30;4.05;;;;;;;;;;5059916;28;20408;-80
2022/11/07 07:10:03;;;;;;;12.70;4.38;;;;;;;;;;5062414;28;20417;-82
2022/11/07 07:12:29;;;;;;;7.03;3.85;;;;;;;;;;5056981;28;20923;-81
2022/11/07 07:14:56;;;;;;;9.48;4.10;;;;;;;;;;5061287;28;20419;-81
2022/11/07 07:17:22;;;;;;;11.55;4.78;;;;;;;;;;5066993;28;20409;-81
2022/11/07 07:19:49;;;;;;;10.38;4.30;;;;;;;;;;5063124;28;20422;-81
2022/11/07 07:22:15;;;;;;;12.52;4.38;;;;;;;;;;5062028;28;20917;-81
2022/11/07 07:24:42;;;;;;;8.20;3.80;;;;;;;;;;5066800;28;20424;-81
2022/11/07 07:27:10;;;;;;;8.00;3.80;;;;;;;;;;5060521;28;20411;-81
2022/11/07 07:29:36;;;;;;;12.98;4.43;;;;;;;;;;5063628;28;20889;-81
2022/11/07 07:32:02;;;;;;;11.20;4.70;;;;;;;;;;5064187;28;20412;-82
2022/11/07 07:34:29;;;;;;;10.50;4.55;;;;;;;;;;5061111;28;20923;-80
2022/11/07 07:36:55;;;;;;;9.60;4.40;;;;;;;;;;5061780;28;20427;-80
2022/11/07 07:39:23;;;;;;;8.70;3.65;;;;;;;;;;5063439;28;20434;-80
2022/11/07 07:41:49;;;;;;;11.38;4.93;;;;;;;;;;5061787;28;20436;-80
2022/11/07 07:44:17;;;;;;;12.00;4.80;;;;;;;;;;5064461;28;20420;-80
2022/11/07 07:46:43;;;;;;;6.20;3.87;;;;;;;;;;5063795;28;20500;-80
2022/11/07 07:49:10;;;;;;;11.35;4.60;;;;;;;;;;5061774;28;20460;-80
2022/11/07 07:51:36;;;;;;;10.70;4.30;;;;;;;;;;5066798;28;20415;-80
2022/11/07 07:54:03;;;;;;;9.15;4.05;;;;;;;;;;5065918;28;20438;-80
2022/11/07 07:56:30;;;;;;;9.80;4.00;;;;;;;;;;5064011;28;20413;-80
2022/11/07 07:58:56;;;;;;;7.90;3.80;;;;;;;;;;5065233;28;20443;-80
2022/11/07 08:01:24;;;;;;;14.20;4.18;;;;;;;;;;5064504;28;20412;-79
2022/11/07 08:03:50;;;;;;;7.07;4.03;;;;;;;;;;5066922;28;20421;-80
2022/11/07 08:06:17;;;;;;;11.98;4.50;;;;;;;;;;5067014;28;20411;-80
2022/11/07 08:08:43;;;;;;;8.70;3.92;;;;;;;;;;5063478;28;20417;-80
2022/11/07 08:11:10;;;;;;;13.75;4.30;;;;;;;;;;5062822;28;20415;-80
2022/11/07 08:13:36;;;;;;;9.98;3.90;;;;;;;;;;5064982;28;20419;-80
2022/11/07 08:16:06;;;;;;;9.73;3.80;;;;;;;;;;5063545;28;20423;-79
2022/11/07 08:18:35;;;;;;;6.85;3.47;;;;;;;;;;5065121;28;20419;-79
2022/11/07 08:21:01;;;;;;;10.38;4.32;;;;;;;;;;5063017;28;20415;-79
2022/11/07 08:23:29;;;;;;;9.60;4.40;;;;;;;;;;5061188;28;20419;-81
2022/11/07 08:25:56;;;;;;;10.50;3.97;;;;;;;;;;5061519;28;20411;-80
2022/11/07 08:28:24;;;;;;;14.00;4.05;;;;;;;;;;5061948;28;20425;-80
2022/11/07 08:30:57;;;;;;;13.95;4.22;;;;;;;;;;5064892;28;20420;-80
2022/11/07 08:33:23;;;;;;;12.30;4.03;;;;;;;;;;5062548;28;20424;-80
2022/11/07 08:35:51;;;;;;;10.70;4.30;;;;;;;;;;5065370;28;20415;-80
2022/11/07 08:38:18;;;;;;;11.35;4.38;;;;;;;;;;5065128;28;20907;-80
2022/11/07 08:40:44;;;;;;;12.07;4.25;;;;;;;;;;5063592;28;20418;-80
2022/11/07 08:43:10;;;;;;;8.85;3.95;;;;;;;;;;5067061;28;20425;-80
2022/11/07 08:45:37;;;;;;;7.45;4.00;;;;;;;;;;5057390;28;20785;-80
2022/11/07 08:48:04;;;;;;;13.60;3.80;;;;;;;;;;5065385;28;20415;-80
2022/11/07 08:50:33;;;;;;;9.90;4.20;;;;;;;;;;5066627;28;20773;-80
2022/11/07 08:53:01;;;;;;;10.90;4.45;;;;;;;;;;5064968;28;20413;-80
2022/11/07 08:55:27;;;;;;;14.23;4.10;;;;;;;;;;5067091;28;20407;-80
2022/11/07 08:57:57;;;;;;;9.73;4.30;;;;;;;;;;5066122;28;20429;-80
2022/11/07 09:00:24;;;;;;;13.55;4.25;;;;;;;;;;5066129;28;20481;-80
2022/11/07 09:02:50;;;;;;;13.95;4.35;;;;;;;;;;5068020;28;20427;-80
2022/11/07 09:05:17;;;;;;;10.80;4.00;;;;;;;;;;5063622;28;20432;-80
2022/11/07 09:07:43;;;;;;;14.63;4.85;;;;;;;;;;5069895;28;20426;-80
2022/11/07 09:10:11;;;;;;;15.93;4.20;;;;;;;;;;5063318;28;20413;-80
2022/11/07 09:12:45;;;;;;;11.77;3.90;;;;;;;;;;5065814;28;20424;-80
2022/11/07 09:15:11;;;;;;;9.45;4.15;;;;;;;;;;5068577;28;20417;-80
2022/11/07 09:17:37;;;;;;;8.57;3.90;;;;;;;;;;5066154;28;20503;-80
2022/11/07 09:20:04;;;;;;;13.35;4.80;;;;;;;;;;5062889;28;20493;-80
2022/11/07 09:22:32;;;;;;;10.48;4.32;;;;;;;;;;5064643;28;20421;-80
2022/11/07 09:24:58;;;;;;;9.27;3.80;;;;;;;;;;5070313;28;20801;-80
2022/11/07 09:27:26;;;;;;;13.10;4.53;;;;;;;;;;5063496;28;20421;-80
2022/11/07 09:29:52;;;;;;;8.80;4.18;;;;;;;;;;5066744;28;20425;-80
2022/11/07 09:32:19;;;;;;;10.25;4.20;;;;;;;;;;5067202;28;20407;-80
2022/11/07 09:34:45;;;;;;;12.50;3.90;;;;;;;;;;5067484;28;20411;-80
2022/11/07 09:37:12;;;;;;;15.20;4.60;;;;;;;;;;5066910;28;20420;-80
2022/11/07 09:39:38;;;;;;;13.00;4.28;;;;;;;;;;5068135;28;20428;-80
2022/11/07 09:42:11;;;;;;;9.02;4.47;;;;;;;;;;5067502;28;20435;-80
2022/11/07 09:44:45;;;;;;;11.40;4.20;;;;;;;;;;5069441;28;20425;-80
2022/11/07 09:47:18;;;;;;;16.85;5.05;;;;;;;;;;5066186;28;20416;-80
2022/11/07 09:49:46;;;;;;;12.25;4.00;;;;;;;;;;5063741;28;20449;-80
2022/11/07 09:52:15;;;;;;;14.38;4.88;;;;;;;;;;5066234;28;20436;-81
2022/11/07 09:54:46;;;;;;;15.40;4.88;;;;;;;;;;5066012;28;20417;-80
2022/11/07 09:57:15;;;;;;;11.23;4.40;;;;;;;;;;5063897;28;20413;-80
2022/11/07 09:59:46;;;;;;;18.10;4.10;;;;;;;;;;5064186;28;20430;-80
2022/11/07 10:02:16;;;;;;;12.05;4.10;;;;;;;;;;5058909;28;20419;-80
2022/11/07 10:04:43;;;;;;;10.35;4.03;;;;;;;;;;5063817;28;20889;-80
2022/11/07 10:07:12;;;;;;;13.02;4.28;;;;;;;;;;5065825;28;20421;-79
2022/11/07 10:09:44;;;;;;;12.25;4.50;;;;;;;;;;5059525;28;20409;-80
2022/11/07 10:12:19;;;;;;;13.65;4.20;;;;;;;;;;5065666;28;20427;-80
2022/11/07 10:14:51;;;;;;;13.48;4.15;;;;;;;;;;5067374;28;20429;-80
2022/11/07 10:17:21;;;;;;;13.80;5.10;;;;;;;;;;5062754;28;20426;-80
2022/11/07 10:20:00;;;;;;;11.85;4.63;;;;;;;;;;5067114;28;20427;-80
2022/11/07 10:22:33;;;;;;;12.63;4.07;;;;;;;;;;5061291;28;20494;-80
2022/11/07 10:25:05;;;;;;;15.30;4.30;;;;;;;;;;5062872;28;20428;-80
2022/11/07 10:27:32;;;;;;;11.98;4.57;;;;;;;;;;5063866;28;20451;-80
2022/11/07 10:30:00;;;;;;;14.48;4.15;;;;;;;;;;5065757;28;20427;-80
2022/11/07 10:32:29;;;;;;;14.00;4.88;;;;;;;;;;5064119;28;20917;-80
2022/11/07 10:35:01;;;;;;;11.82;4.18;;;;;;;;;;5067053;28;20421;-80
2022/11/07 10:37:27;;;;;;;12.50;4.10;;;;;;;;;;5064670;28;20472;-80
2022/11/07 10:39:53;;;;;;;15.95;4.50;;;;;;;;;;5065891;28;20456;-81
2022/11/07 10:42:22;;;;;;;12.48;4.60;;;;;;;;;;5067301;28;20408;-81
2022/11/07 10:44:48;;;;;;;14.27;4.20;;;;;;;;;;5068105;28;20448;-80
2022/11/07 10:47:16;;;;;;;12.52;3.97;;;;;;;;;;5067651;28;20950;-80
2022/11/07 10:49:53;;;;;;;11.07;4.35;;;;;;;;;;5070201;28;20416;-81
2022/11/07 10:52:19;;;;;;;13.30;4.30;;;;;;;;;;5060927;28;20430;-80
2022/11/07 10:54:47;;;;;;;11.55;3.97;;;;;;;;;;5065994;28;20811;-81
2022/11/07 10:57:15;;;;;;;10.48;5.03;;;;;;;;;;5060869;28;20496;-81
2022/11/07 10:59:47;;;;;;;7.88;4.10;;;;;;;;;;5062223;28;20425;-80
2022/11/07 11:02:19;;;;;;;13.00;4.38;;;;;;;;;;5062253;28;20413;-80
2022/11/07 11:04:47;;;;;;;11.23;4.40;;;;;;;;;;5062387;28;20927;-80
2022/11/07 11:07:14;;;;;;;14.48;4.30;;;;;;;;;;5059025;28;20446;-80
2022/11/07 11:09:48;;;;;;;12.87;3.90;;;;;;;;;;5067345;28;20411;-80
2022/11/07 11:12:16;;;;;;;15.45;5.20;;;;;;;;;;5064066;28;20939;-80
2022/11/07 11:14:42;;;;;;;11.60;4.57;;;;;;;;;;5063570;28;20465;-81
2022/11/07 11:17:22;;;;;;;13.85;4.60;;;;;;;;;;5066948;28;20411;-80
2022/11/07 11:19:51;;;;;;;12.80;3.83;;;;;;;;;;5063603;28;20435;-80
2022/11/07 11:22:18;;;;;;;10.70;4.50;;;;;;;;;;5059498;28;20425;-80
2022/11/07 11:24:45;;;;;;;9.43;4.03;;;;;;;;;;5063125;28;20455;-81
2022/11/07 11:27:17;;;;;;;10.30;3.90;;;;;;;;;;5065600;28;20490;-80
2022/11/07 11:29:47;;;;;;;10.63;3.80;;;;;;;;;;5062236;28;20431;-80
2022/11/07 11:32:16;;;;;;;11.73;3.92;;;;;;;;;;5065938;28;20422;-80
2022/11/07 11:34:49;;;;;;;9.85;4.10;;;;;;;;;;5062608;28;20415;-80
2022/11/07 11:37:19;;;;;;;12.35;3.90;;;;;;;;;;5059590;28;20425;-82
2022/11/07 11:39:49;;;;;;;10.32;4.13;;;;;;;;;;5066484;28;20437;-82
2022/11/07 11:42:20;;;;;;;9.18;3.80;;;;;;;;;;5066520;28;20426;-85
2022/11/07 11:44:47;;;;;;;10.45;4.10;;;;;;;;;;5060222;28;20950;-81
2022/11/07 11:47:20;;;;;;;9.97;4.23;;;;;;;;;;5056445;28;20434;-81
2022/11/07 11:49:50;;;;;;;12.48;4.30;;;;;;;;;;5059018;28;20428;-81
2022/11/07 11:52:19;;;;;;;11.68;4.30;;;;;;;;;;5062535;28;20422;-81
2022/11/07 11:54:46;;;;;;;8.98;3.35;;;;;;;;;;5062216;28;20413;-81
2022/11/07 11:57:14;;;;;;;8.70;3.87;;;;;;;;;;5057540;28;20413;-81
2022/11/07 12:00:02;;;;;;;13.13;4.35;;;;;;;;;;5056076;28;20945;-81
2022/11/07 12:02:46;;;;;;;10.77;4.10;;;;;;;;;;5052706;28;20427;-81
2022/11/07 12:05:22;;;;;;;8.63;4.25;;;;;;;;;;5060342;28;20917;-81
2022/11/07 12:07:54;;;;;;;12.48;4.10;;;;;;;;;;5056178;28;20427;-81
2022/11/07 12:10:25;;;;;;;14.18;3.92;;;;;;;;;;5055793;28;20429;-81
2022/11/07 12:12:58;;;;;;;10.40;4.72;;;;;;;;;;5058502;28;20405;-82
2022/11/07 12:15:38;;;;;;;10.13;5.07;;;;;;;;;;5057741;28;20426;-81
2022/11/07 12:18:09;;;;;;;9.98;5.10;;;;;;;;;;5064609;28;20411;-82
2022/11/07 12:20:40;;;;;;;11.85;4.80;;;;;;;;;;5062253;28;20429;-82
2022/11/07 12:23:17;;;;;;;14.60;5.20;;;;;;;;;;5064645;28;20423;-80
2022/11/07 12:25:45;;;;;;;13.67;5.40;;;;;;;;;;5060382;28;20407;-80
2022/11/07 12:28:24;;;;;;;13.10;4.75;;;;;;;;;;5063374;28;20428;-80
2022/11/07 12:30:57;;;;;;;12.63;4.90;;;;;;;;;;5061057;28;20926;-81
2022/11/07 12:33:27;;;;;;;14.63;5.30;;;;;;;;;;5062873;28;20434;-81
2022/11/07 12:35:54;;;;;;;11.77;4.57;;;;;;;;;;5066543;28;20404;-81
2022/11/07 12:38:35;;;;;;;13.25;5.18;;;;;;;;;;5066352;28;20407;-81
2022/11/07 12:41:05;;;;;;;11.50;5.00;;;;;;;;;;5062285;28;20819;-82
2022/11/07 12:43:39;;;;;;;11.60;4.65;;;;;;;;;;5062881;28;20418;-81
2022/11/07 12:46:10;;;;;;;16.42;5.30;;;;;;;;;;5061765;28;20418;-80
2022/11/07 12:49:00;;;;;;;14.45;5.22;;;;;;;;;;5062894;28;20854;-81
2022/11/07 12:51:34;;;;;;;14.20;5.50;;;;;;;;;;5044685;28;20417;-81
2022/11/07 12:54:09;;;;;;;14.52;4.90;;;;;;;;;;5062405;28;20432;-81
2022/11/07 12:56:37;;;;;;;9.13;4.60;;;;;;;;;;5063287;28;20470;-81
2022/11/07 12:59:05;;;;;;;11.68;4.15;;;;;;;;;;5063474;28;20899;-81
2022/11/07 13:01:39;;;;;;;9.00;3.93;;;;;;;;;;5059436;28;20867;-81
2022/11/07 13:04:09;;;;;;;15.40;4.65;;;;;;;;;;5061218;28;20431;-81
2022/11/07 13:06:38;;;;;;;14.30;4.35;;;;;;;;;;5062482;28;20426;-81
2022/11/07 13:09:10;;;;;;;11.60;4.40;;;;;;;;;;5061053;28;20439;-81
2022/11/07 13:11:42;;;;;;;11.13;4.50;;;;;;;;;;5058356;28;20433;-81
2022/11/07 13:14:18;;;;;;;13.60;4.35;;;;;;;;;;5066244;28;20913;-80
2022/11/07 13:16:51;;;;;;;9.15;4.63;;;;;;;;;;5061081;28;20419;-80
2022/11/07 13:19:27;;;;;;;12.98;3.92;;;;;;;;;;5062695;28;20989;-79
2022/11/07 13:21:58;;;;;;;7.22;3.40;;;;;;;;;;5061710;28;20429;-80
2022/11/07 13:24:26;;;;;;;11.07;3.80;;;;;;;;;;5060080;28;20432;-79
2022/11/07 13:26:52;;;;;;;7.17;3.80;;;;;;;;;;5059288;28;20429;-79
2022/11/07 13:29:23;;;;;;;9.63;3.75;;;;;;;;;;5063944;28;20414;-80
2022/11/07 13:31:52;;;;;;;12.98;4.00;;;;;;;;;;5058944;28;20426;-80
2022/11/07 13:34:24;;;;;;;10.43;3.97;;;;;;;;;;5065775;28;20418;-80
2022/11/07 13:36:51;;;;;;;11.45;3.72;;;;;;;;;;5062298;28;20421;-81
2022/11/07 13:39:18;;;;;;;12.02;3.90;;;;;;;;;;5060969;28;20441;-80
2022/11/07 13:41:48;;;;;;;10.00;3.65;;;;;;;;;;5062002;28;20421;-80
2022/11/07 13:44:17;;;;;;;14.20;5.10;;;;;;;;;;5062702;28;20426;-80
2022/11/07 13:46:46;;;;;;;9.57;3.60;;;;;;;;;;5062302;28;20413;-81
2022/11/07 13:49:15;;;;;;;11.55;3.92;;;;;;;;;;5058625;28;20412;-81
2022/11/07 13:51:44;;;;;;;12.05;3.90;;;;;;;;;;5063006;28;20417;-81
2022/11/07 13:54:13;;;;;;;7.10;3.35;;;;;;;;;;5063742;28;20415;-81
2022/11/07 13:56:41;;;;;;;5.88;3.10;;;;;;;;;;5060418;28;20920;-82
2022/11/07 13:59:11;;;;;;;12.98;4.50;;;;;;;;;;5060128;28;20417;-82
2022/11/07 14:01:42;;;;;;;7.88;3.67;;;;;;;;;;5061397;28;20454;-81
2022/11/07 14:04:12;;;;;;;9.05;4.10;;;;;;;;;;5064111;28;20421;-81
2022/11/07 14:06:39;;;;;;;8.43;3.73;;;;;;;;;;5059569;28;20411;-80
2022/11/07 14:09:07;;;;;;;8.97;3.80;;;;;;;;;;5058739;28;20928;-81
2022/11/07 14:11:34;;;;;;;10.02;3.70;;;;;;;;;;5060545;28;20922;-81
2022/11/07 14:14:01;;;;;;;10.85;3.90;;;;;;;;;;5057868;28;20429;-79
2022/11/07 14:16:29;;;;;;;7.72;3.95;;;;;;;;;;5062028;28;20419;-81
2022/11/07 14:18:56;;;;;;;10.13;3.53;;;;;;;;;;5064594;28;20431;-79
2022/11/07 14:21:25;;;;;;;11.55;4.05;;;;;;;;;;5059663;28;20429;-79
2022/11/07 14:23:52;;;;;;;10.70;4.30;;;;;;;;;;5064249;28;20427;-79
2022/11/07 14:26:19;;;;;;;7.47;3.50;;;;;;;;;;5058373;28;20432;-79
2022/11/07 14:28:46;;;;;;;10.30;4.03;;;;;;;;;;5061186;28;20881;-79
2022/11/07 14:31:16;;;;;;;10.53;4.17;;;;;;;;;;5059131;28;20444;-79
2022/11/07 14:33:49;;;;;;;9.57;3.60;;;;;;;;;;5057881;28;20417;-79
2022/11/07 14:36:15;;;;;;;8.38;4.20;;;;;;;;;;5062360;28;20469;-79
2022/11/07 14:38:46;;;;;;;11.50;3.90;;;;;;;;;;5056366;28;21825;-79
2022/11/07 14:41:15;;;;;;;9.23;4.15;;;;;;;;;;5059321;28;20503;-79
2022/11/07 14:43:42;;;;;;;13.70;4.32;;;;;;;;;;5062198;28;20450;-79
2022/11/07 14:46:11;;;;;;;9.45;3.63;;;;;;;;;;5057846;28;20787;-79
2022/11/07 14:48:38;;;;;;;9.18;3.67;;;;;;;;;;5059809;28;20546;-79
2022/11/07 14:51:06;;;;;;;7.30;3.40;;;;;;;;;;5059249;28;20415;-79